createdAt,value
2022-12-01T00:00:03.566Z,33.17
2022-12-01T00:04:49.293Z,27.37
2022-12-01T00:09:50.416Z,29.73
2022-12-01T00:14:33.977Z,35.40
2022-12-01T00:19:19.398Z,34.53
2022-12-01T00:24:02.862Z,35.17
2022-12-01T00:28:49.509Z,33.43
2022-12-01T00:33:32.857Z,34.13
2022-12-01T00:38:18.308Z,36.63
2022-12-01T00:43:02.389Z,36.30
2022-12-01T00:47:46.300Z,32.63
2022-12-01T00:52:29.788Z,37.57
2022-12-01T00:57:15.469Z,32.73
2022-12-01T01:01:58.971Z,39.50
2022-12-01T01:06:43.501Z,36.70
2022-12-01T01:11:27.725Z,32.30
2022-12-01T01:16:16.421Z,37.03
2022-12-01T01:21:01.767Z,32.27
2022-12-01T01:25:45.175Z,33.23
2022-12-01T01:30:29.016Z,41.30
2022-12-01T01:35:13.857Z,34.43
2022-12-01T01:39:57.268Z,34.73
2022-12-01T01:44:53.164Z,37.83
2022-12-01T01:49:37.062Z,35.33
2022-12-01T01:54:25.110Z,33.50
2022-12-01T01:59:08.767Z,35.90
2022-12-01T02:03:55.443Z,36.10
2022-12-01T02:08:39.608Z,32.67
2022-12-01T02:13:32.625Z,35.50
2022-12-01T02:18:25.545Z,32.37
2022-12-01T02:23:45.430Z,36.00
2022-12-01T02:28:49.632Z,33.80
2022-12-01T02:33:40.920Z,36.70
2022-12-01T02:38:29.944Z,32.40
2022-12-01T02:43:21.458Z,36.87
2022-12-01T02:48:09.585Z,36.07
2022-12-01T02:52:55.745Z,38.10
2022-12-01T02:57:39.297Z,32.83
2022-12-01T03:02:33.407Z,37.13
2022-12-01T03:07:33.416Z,37.63
2022-12-01T03:12:27.839Z,40.20
2022-12-01T03:17:16.688Z,38.10
2022-12-01T03:22:06.808Z,36.93
2022-12-01T03:26:57.051Z,37.63
2022-12-01T03:31:45.811Z,42.03
2022-12-01T03:36:32.983Z,39.07
2022-12-01T03:41:20.427Z,40.23
2022-12-01T03:46:10.728Z,40.90
2022-12-01T03:51:04.055Z,43.47
2022-12-01T03:55:53.446Z,40.90
2022-12-01T04:00:37.956Z,44.50
2022-12-01T04:05:25.297Z,42.20
2022-12-01T04:10:11.056Z,42.13
2022-12-01T04:14:54.472Z,43.33
2022-12-01T04:19:37.854Z,39.40
2022-12-01T04:24:21.292Z,40.47
2022-12-01T04:29:10.175Z,44.53
2022-12-01T04:33:55.095Z,39.10
2022-12-01T04:38:38.662Z,41.43
2022-12-01T04:43:22.564Z,42.47
2022-12-01T04:48:07.779Z,40.17
2022-12-01T04:52:51.362Z,43.60
2022-12-01T04:57:34.789Z,42.87
2022-12-01T05:02:18.222Z,38.23
2022-12-01T05:07:03.076Z,41.03
2022-12-01T05:11:46.717Z,43.00
2022-12-01T05:16:32.563Z,41.50
2022-12-01T05:21:16.081Z,39.63
2022-12-01T05:26:01.111Z,43.47
2022-12-01T05:30:44.903Z,43.23
2022-12-01T05:35:28.316Z,44.47
2022-12-01T05:40:13.342Z,46.40
2022-12-01T05:44:58.312Z,45.27
2022-12-01T05:49:41.649Z,49.73
2022-12-01T05:54:25.081Z,44.43
2022-12-01T05:59:08.483Z,42.97
2022-12-01T06:03:54.166Z,45.93
2022-12-01T06:08:37.675Z,46.30
2022-12-01T06:13:21.352Z,42.57
2022-12-01T06:18:04.878Z,45.03
2022-12-01T06:22:50.151Z,48.13
2022-12-01T06:27:33.631Z,45.57
2022-12-01T06:32:17.215Z,49.13
2022-12-01T06:37:00.976Z,47.20
2022-12-01T06:41:45.884Z,49.47
2022-12-01T06:46:30.445Z,50.23
2022-12-01T06:51:14.004Z,46.73
2022-12-01T06:56:01.333Z,47.37
2022-12-01T07:00:51.766Z,44.17
2022-12-01T07:05:35.627Z,46.53
2022-12-01T07:10:19.316Z,45.60
2022-12-01T07:15:03.039Z,40.07
2022-12-01T07:19:48.343Z,40.73
2022-12-01T07:24:32.375Z,43.27
2022-12-01T07:29:16.275Z,41.07
2022-12-01T07:33:59.713Z,43.27
2022-12-01T07:38:44.744Z,43.43
2022-12-01T07:43:28.225Z,42.20
2022-12-01T07:48:12.161Z,42.97
2022-12-01T07:52:55.695Z,44.17
2022-12-01T07:57:40.744Z,45.00
2022-12-01T08:02:24.321Z,44.40
2022-12-01T08:07:08.410Z,46.67
2022-12-01T08:11:51.829Z,44.80
2022-12-01T08:16:36.657Z,45.10
2022-12-01T08:21:23.141Z,41.13
2022-12-01T08:26:08.444Z,45.80
2022-12-01T08:30:52.215Z,44.87
2022-12-01T08:35:38.721Z,40.17
2022-12-01T08:40:22.371Z,41.37
2022-12-01T08:45:06.268Z,45.20
2022-12-01T08:49:49.962Z,42.67
2022-12-01T08:54:35.146Z,40.73
2022-12-01T08:59:19.083Z,40.43
2022-12-01T09:04:08.838Z,39.00
2022-12-01T09:08:52.527Z,41.93
2022-12-01T09:13:39.794Z,41.37
2022-12-01T09:18:23.376Z,43.80
2022-12-01T09:23:06.891Z,41.93
2022-12-01T09:27:50.275Z,40.27
2022-12-01T09:32:35.065Z,44.60
2022-12-01T09:37:18.505Z,39.90
2022-12-01T09:42:09.196Z,41.70
2022-12-01T09:46:57.316Z,43.80
2022-12-01T09:51:42.183Z,40.73
2022-12-01T09:56:29.422Z,39.70
2022-12-01T10:01:17.192Z,42.03
2022-12-01T10:11:18.012Z,43.90
2022-12-01T10:16:08.551Z,41.03
2022-12-01T10:20:58.770Z,44.53
2022-12-01T10:25:53.274Z,45.53
2022-12-01T10:30:49.814Z,45.67
2022-12-01T10:35:37.274Z,43.67
2022-12-01T10:40:21.158Z,40.97
2022-12-01T10:45:11.350Z,42.93
2022-12-01T10:49:56.743Z,38.33
2022-12-01T10:54:41.787Z,45.03
2022-12-01T10:59:34.345Z,41.17
2022-12-01T11:04:30.389Z,42.67
2022-12-01T11:09:25.955Z,41.03
2022-12-01T11:14:21.521Z,40.67
2022-12-01T11:19:11.433Z,44.10
2022-12-01T11:23:56.690Z,43.20
2022-12-01T11:28:52.092Z,41.40
2022-12-01T11:33:45.996Z,47.47
2022-12-01T11:38:37.663Z,42.20
2022-12-01T11:43:26.688Z,39.87
2022-12-01T11:48:26.201Z,42.97
2022-12-01T11:53:28.069Z,39.93
2022-12-01T11:58:11.693Z,41.07
2022-12-01T12:03:20.666Z,39.83
2022-12-01T12:08:14.355Z,39.97
2022-12-01T12:13:14.169Z,43.83
2022-12-01T12:18:20.005Z,41.87
2022-12-01T12:23:29.030Z,42.07
2022-12-01T12:28:29.494Z,41.97
2022-12-01T12:33:38.948Z,46.10
2022-12-01T12:38:41.979Z,40.77
2022-12-01T12:43:33.741Z,45.27
2022-12-01T12:48:32.689Z,42.00
2022-12-01T12:53:22.394Z,43.73
2022-12-01T12:58:14.635Z,48.67
2022-12-01T13:03:04.988Z,44.07
2022-12-01T13:07:55.049Z,39.17
2022-12-01T13:12:42.096Z,46.23
2022-12-01T13:17:32.511Z,46.47
2022-12-01T13:22:19.256Z,44.83
2022-12-01T13:27:06.381Z,44.93
2022-12-01T13:31:52.570Z,46.73
2022-12-01T13:36:52.738Z,43.47
2022-12-01T13:41:39.281Z,45.13
2022-12-01T13:46:24.495Z,45.73
2022-12-01T13:51:08.608Z,46.73
2022-12-01T13:56:01.822Z,46.73
2022-12-01T14:00:46.117Z,44.73
2022-12-01T14:05:47.022Z,47.47
2022-12-01T14:10:32.808Z,44.00
2022-12-01T14:15:42.895Z,42.83
2022-12-01T14:20:28.257Z,44.47
2022-12-01T14:25:27.402Z,42.83
2022-12-01T14:30:46.984Z,44.80
2022-12-01T14:35:33.826Z,42.40
2022-12-01T14:40:22.765Z,43.27
2022-12-01T14:45:09.209Z,44.53
2022-12-01T14:49:57.383Z,38.53
2022-12-01T14:54:46.800Z,43.47
2022-12-01T14:59:30.639Z,40.80
2022-12-01T15:04:14.143Z,49.50
2022-12-01T15:14:30.010Z,41.67
2022-12-01T15:19:24.907Z,35.20
2022-12-01T15:24:23.114Z,35.43
2022-12-01T15:29:15.648Z,43.27
2022-12-01T15:34:00.876Z,41.63
2022-12-01T15:38:47.733Z,38.27
2022-12-01T15:43:37.757Z,40.10
2022-12-01T15:48:31.573Z,40.87
2022-12-01T15:53:25.537Z,39.63
2022-12-01T15:58:11.173Z,39.87
2022-12-01T16:02:57.796Z,37.27
2022-12-01T16:08:12.024Z,39.87
2022-12-01T16:12:47.085Z,35.03
2022-12-01T16:17:42.121Z,42.27
2022-12-01T16:22:26.995Z,38.77
2022-12-01T16:27:22.166Z,41.43
2022-12-01T16:32:21.305Z,41.03
2022-12-01T16:37:06.178Z,42.07
2022-12-01T16:41:51.519Z,56.87
2022-12-01T16:46:36.109Z,49.23
2022-12-01T16:51:30.014Z,44.87
2022-12-01T16:56:26.914Z,48.40
2022-12-01T17:01:13.198Z,42.23
2022-12-01T17:06:01.659Z,43.00
2022-12-01T17:10:49.919Z,45.70
2022-12-01T17:15:34.429Z,48.60
2022-12-01T17:20:19.083Z,47.37
2022-12-01T17:25:05.634Z,39.93
2022-12-01T17:29:53.455Z,44.13
2022-12-01T17:34:37.786Z,43.13
2022-12-01T17:39:23.530Z,37.17
2022-12-01T17:44:07.509Z,48.00
2022-12-01T17:48:53.692Z,44.33
2022-12-01T17:53:41.269Z,44.53
2022-12-01T17:58:25.832Z,46.90
2022-12-01T18:03:10.186Z,42.50
2022-12-01T18:07:56.645Z,42.17
2022-12-01T18:12:42.882Z,45.27
2022-12-01T18:17:27.888Z,41.90
2022-12-01T18:22:12.397Z,44.53
2022-12-01T18:27:00.070Z,41.63
2022-12-01T18:31:45.219Z,51.60
2022-12-01T18:36:29.997Z,48.33
2022-12-01T18:41:15.291Z,43.53
2022-12-01T18:46:01.029Z,46.27
2022-12-01T18:50:47.279Z,45.53
2022-12-01T18:55:32.464Z,48.30
2022-12-01T19:00:18.401Z,44.13
2022-12-01T19:05:04.530Z,45.97
2022-12-01T19:09:52.072Z,53.73
2022-12-01T19:14:38.705Z,47.83
2022-12-01T19:19:23.392Z,46.87
2022-12-01T19:24:11.169Z,46.80
2022-12-01T19:28:56.309Z,45.33
2022-12-01T19:33:42.579Z,47.80
2022-12-01T19:38:28.036Z,45.67
2022-12-01T19:43:14.730Z,48.13
2022-12-01T19:47:59.621Z,44.77
2022-12-01T19:52:44.664Z,45.50
2022-12-01T19:57:31.124Z,49.40
2022-12-01T20:02:28.791Z,44.97
2022-12-01T20:07:17.002Z,43.73
2022-12-01T20:12:02.544Z,47.60
2022-12-01T20:16:50.353Z,42.20
2022-12-01T20:21:39.823Z,44.63
2022-12-01T20:26:30.397Z,44.53
2022-12-01T20:31:18.892Z,42.97
2022-12-01T20:36:04.979Z,44.47
2022-12-01T20:40:54.333Z,46.87
2022-12-01T20:45:40.556Z,44.30
2022-12-01T20:50:26.718Z,47.13
2022-12-01T20:55:12.856Z,41.50
2022-12-01T20:59:59.036Z,38.43
2022-12-01T21:04:43.944Z,39.50
2022-12-01T21:09:28.876Z,39.33
2022-12-01T21:14:18.453Z,41.67
2022-12-01T21:19:13.002Z,43.37
2022-12-01T21:24:17.796Z,39.17
2022-12-01T21:29:02.478Z,36.47
2022-12-01T21:33:48.296Z,41.23
2022-12-01T21:38:34.131Z,37.83
2022-12-01T21:43:22.652Z,41.57
2022-12-01T21:48:18.056Z,39.13
2022-12-01T21:53:02.506Z,41.17
2022-12-01T21:57:51.120Z,38.73
2022-12-01T22:02:47.174Z,40.30
2022-12-01T22:07:31.497Z,45.93
2022-12-01T22:12:25.041Z,38.47
2022-12-01T22:17:17.754Z,40.40
2022-12-01T22:22:21.818Z,40.27
2022-12-01T22:27:20.812Z,37.87
2022-12-01T22:32:45.727Z,42.70
2022-12-01T22:37:35.572Z,39.13
2022-12-01T22:42:23.541Z,38.30
2022-12-01T22:47:11.826Z,37.43
2022-12-01T22:52:02.287Z,36.97
2022-12-01T22:56:48.566Z,35.17
2022-12-01T23:01:36.091Z,40.67
2022-12-01T23:06:49.906Z,45.10
2022-12-01T23:11:35.387Z,38.83
2022-12-01T23:16:20.246Z,40.07
2022-12-01T23:21:04.918Z,39.83
2022-12-01T23:25:51.518Z,37.17
2022-12-01T23:30:40.374Z,42.40
2022-12-01T23:35:24.147Z,41.93
2022-12-01T23:40:18.192Z,33.67
2022-12-01T23:45:02.832Z,41.10
2022-12-01T23:49:49.364Z,36.87
2022-12-01T23:54:35.334Z,43.17
2022-12-01T23:59:21.022Z,41.23
